Logo

Informe meteorológico de la semana en curso

  • Compartir en Google Plus
  • Compartir en Twitter
  • Compartir en Facebook
Nº de accesos al conjunto de datos: 93

Previsualización

API de datos Código HTML

_id codest paraje municipio periodo NDias tmin tmax tmed hrmin hrmax hrmed prec radmax radmed vvmed vvmax eto_pm_fao
1 AL31 Lebor Totana 19/05/2019 - 25/05/2019 5 10.9 29.7 18.8 19.2 99.9 56.3 1.2 1406 305.1 1.5 6.7 25.7
2 AL41 La Calavera Alhama 19/05/2019 - 25/05/2019 5 6.7 28.2 18.0 16.3 90.9 54.3 1.6 1270 297.2 2.0 10.2 27.0
3 AL52 Los Palomos Librilla 19/05/2019 - 25/05/2019 5 9.6 30.9 19.3 19.4 94.3 57.4 0.4 1228 259.1 1.4 9.6 23.5
4 AL62 Cañada Gallego Mazarrón 19/05/2019 - 25/05/2019 1 13.9 23.0 18.3 19.4 63.0 40.7 0.0 1181 352.1 1.3 6.8 5.4
5 AL91 Leiva Mazarrón 19/05/2019 - 25/05/2019 5 10.2 26.1 18.4 21.9 100.0 68.6 2.4 1286 321.7 1.2 8.5 24.4
6 CA12 La Palma Cartagena 19/05/2019 - 25/05/2019 1 11.8 23.7 18.3 21.2 78.4 48.2 0.0 1247 327.8 1.4 8.6 5.2
7 CA21 Corvera Murcia 19/05/2019 - 25/05/2019 5 11.1 27.7 18.6 20.9 94.1 55.0 0.2 1328 279.9 1.7 8.7 24.2
8 CA42 Balsapintada Fuente Alamo 19/05/2019 - 25/05/2019 5 9.8 30.3 19.1 19.3 99.9 59.6 0.6 1365 286.4 0.9 5.3 22.5
9 CA52 La Aljorra Cartagena 19/05/2019 - 25/05/2019 5 11.5 28.5 19.0 22.1 93.0 58.4 0.0 1358 291.2 1.4 7.5 24.1
10 CA73 Los Belones Cartagena 19/05/2019 - 25/05/2019 5 14.2 23.8 18.7 40.0 94.0 72.0 0.1 1322 303.7 1.0 5.9 22.1
11 CA91 Campillo Abajo Fuente Alamo 19/05/2019 - 25/05/2019 5 9.6 28.9 18.6 14.1 92.1 51.9 0.5 1278 293.8 0.8 6.9 22.4
12 CI22 Estación de Blanca Blanca 19/05/2019 - 25/05/2019 5 11.3 29.6 18.8 15.0 89.7 50.6 2.7 1347 332.2 1.0 8.2 25.6
13 CI32 Estación Ulea Ulea 19/05/2019 - 25/05/2019 5 10.4 29.1 18.5 19.5 98.4 58.0 21.6 1318 300.9 1.8 9.8 26.3
14 CI42 La Carrichosa Cieza 19/05/2019 - 25/05/2019 5 8.0 30.1 18.6 19.1 98.8 61.3 23.3 1325 322.5 1.0 11.3 25.1
15 CI52 Rotas Calasparra 19/05/2019 - 25/05/2019 5 7.8 30.5 18.7 13.8 87.4 48.0 0.0 1351 305.3 1.2 9.5 25.3
16 CI71 Llano de las olivericas Calasparra 19/05/2019 - 25/05/2019 5 8.0 29.9 18.4 18.9 99.9 57.6 0.0 1256 299.2 1.0 8.7 23.7
17 CR12 Barranda Caravaca 19/05/2019 - 25/05/2019 5 6.1 24.7 14.7 19.2 87.3 47.3 0.0 1341 255.0 1.3 10.9 20.6
18 CR32 El Chaparral Cehegin 19/05/2019 - 25/05/2019 1 6.3 23.0 15.3 16.7 70.3 38.8 0.0 1253 268.7 1.1 7.7 4.3
19 CR42 Venta Ulea Moratalla 19/05/2019 - 25/05/2019 5 7.0 29.8 17.7 19.2 95.2 51.9 0.0 1355 298.9 1.6 8.8 25.7
20 CR52 La Torrecica Cehegin 19/05/2019 - 25/05/2019 5 8.3 28.7 17.6 18.6 90.1 48.9 0.1 1314 288.7 0.8 10.6 22.0
21 JU12 Cª del Judio Jumilla 19/05/2019 - 25/05/2019 1 8.7 22.6 16.3 18.7 48.5 31.5 0.0 1196 315.4 1.5 6.8 5.1
22 JU42 Las Moratillas Yecla 19/05/2019 - 25/05/2019 5 3.9 27.5 15.8 23.4 87.4 53.5 0.1 1314 286.6 1.0 7.6 21.6
23 JU52 Pinillos Yecla 19/05/2019 - 25/05/2019 1 2.8 21.4 13.7 19.4 79.0 41.9 0.0 1192 284.9 0.8 6.5 4.0
24 JU71 Las Encebras Jumilla 19/05/2019 - 25/05/2019 5 7.2 28.0 17.3 18.9 93.8 53.7 23.7 1331 294.8 1.4 10.5 23.9
25 JU81 Roman Jumilla 19/05/2019 - 25/05/2019 5 7.8 28.7 17.9 14.3 89.9 49.6 23.2 1259 322.2 1.3 9.4 25.9
26 LO11 Purias Lorca 19/05/2019 - 25/05/2019 5 10.7 29.9 18.9 18.4 99.9 47.9 0.0 1291 305.7 1.4 8.3 26.0
27 LO21 Pozohiguera Lorca 19/05/2019 - 25/05/2019 5 12.0 26.8 18.6 21.8 99.9 48.3 0.0 1378 312.2 2.1 8.3 27.3
28 LO31 La Pilica Aguilas 19/05/2019 - 25/05/2019 5 14.1 24.3 19.6 23.0 84.8 63.0 0.0 1334 311.7 1.1 5.9 23.1
29 LO41 La Paca Lorca 19/05/2019 - 25/05/2019 5 7.8 27.1 15.8 19.8 98.4 51.0 7.8 1320 296.0 1.7 7.2 24.7
30 LO51 Tebar Aguilas 19/05/2019 - 25/05/2019 5 14.3 25.9 19.2 18.3 89.6 46.5 0.0 1482 322.1 1.8 12.5 27.1
31 LO61 El Esparragal Puerto Lumbreras 19/05/2019 - 25/05/2019 5 10.0 28.2 18.8 14.4 89.7 43.3 0.0 1328 316.8 1.7 9.7 27.5
32 ML21 Mula Mula 19/05/2019 - 25/05/2019 5 9.0 30.3 18.5 15.3 85.9 50.2 0.0 1356 306.2 1.6 11.0 26.7
33 MO12 Pilica Torres de Cotillas 19/05/2019 - 25/05/2019 5 11.4 29.8 19.1 20.2 99.0 58.5 0.4 1285 285.7 1.6 8.8 25.1
34 MO22 Campotejar Molina Segura 19/05/2019 - 25/05/2019 5 10.3 29.7 18.9 15.4 92.9 54.5 3.6 1400 297.5 1.3 11.1 25.1
35 MO31 El Llano Molina Segura 19/05/2019 - 25/05/2019 1 10.4 25.8 18.1 15.5 99.9 51.6 0.0 1070 287.8 0.7 5.1 4.3
36 MO41 La Jaira Abanilla 19/05/2019 - 25/05/2019 1 11.4 24.6 17.6 15.9 85.6 41.7 0.0 1226 300.6 1.3 8.3 4.9
37 MO51 Charco Taray Fortuna 19/05/2019 - 25/05/2019 5 12.0 29.4 19.0 17.7 98.2 58.5 6.2 1422 304.9 1.1 6.2 24.3
38 MO62 Loma del Aire Ojós 19/05/2019 - 25/05/2019 5 12.6 30.2 19.3 18.0 97.0 59.2 32.3 1317 276.6 0.8 8.5 21.9
39 MU21 Los Alamos Beniel 19/05/2019 - 25/05/2019 5 10.1 29.5 19.2 16.5 98.0 65.0 3.9 1235 290.4 1.3 7.2 23.9
40 MU31 La Vereda Murcia 19/05/2019 - 25/05/2019 2 12.7 31.2 20.7 17.0 88.9 43.2 0.0 1233 308.0 1.1 7.4 10.4
41 MU52 Cabezo Plata Murcia 19/05/2019 - 25/05/2019 2 13.2 28.2 20.1 17.2 93.0 50.4 0.0 1143 315.8 1.5 9.8 10.8
42 MU62 La Alberca Murcia 19/05/2019 - 25/05/2019 1 13.1 25.2 19.4 16.7 75.6 39.4 0.0 1260 308.6 1.2 7.9 5.0
43 TP22 Santiago de la Ribera San Javier 19/05/2019 - 25/05/2019 2 11.2 25.4 18.8 32.8 89.2 62.7 0.0 1124 333.3 1.1 6.7 9.8
44 TP42 Torre Blanca Torre Pacheco 19/05/2019 - 25/05/2019 1 11.6 23.8 18.4 27.2 88.1 53.0 0.0 1185 316.0 1.9 8.0 5.2
45 TP52 El Mirador San Javier 19/05/2019 - 25/05/2019 2 11.7 25.4 18.8 23.0 94.3 55.4 0.0 1208 321.8 1.4 7.5 10.0
46 TP73 Los Infiernos Torre Pacheco 19/05/2019 - 25/05/2019 1 11.6 23.0 17.8 22.1 82.2 44.9 0.0 1271 342.9 2.4 9.7 5.7
47 TP91 Torre Pacheco Torre Pacheco 19/05/2019 - 25/05/2019 1 12.5 24.0 18.3 22.8 82.8 47.5 0.0 1225 333.0 1.4 8.1 5.2

Propiedades del conjunto de datos

Título
Informe meteorológico de la semana en curso
Descripción

Información sobre los datos meteorológicos medios de la semana en curso. Se incluye la información por cada una de las estaciones meteorológicas de la red SIAM gestionada por el Instituto Murciano de Investigación y Desarrollo Agrario y Alimentario (IMIDA). Los datos recogidos por las estaciones son validados al día siguiente de la toma de datos.

Categoría
Palabra clave / etiqueta
Publicador
Cobertura geográfica
Región de Murcia
Idioma
Español
Fecha de primera publicación
15/05/2018
Fecha de última modificación
24/05/2019
Licencia
Frecuencia de actualización
Diaria (cada día)
Diccionario de datos
La información se estructura en las siguientes columnas: Código de estación meteorológica, Nombre del paraje donde está ubicada la estación, Municipio donde está ubicada la estación, Fechas de toma de datos, número de días del ejercicio, Temperatura mínima (ºC), Temperatura máxima (ºC), Temperatura media (ºC), Humedad Relativa mínima (%), Humedad Relativa máxima (%),Humedad Relativa media (%),Precipitación (mm), radiación máxima (w/m2), radiación media (w/m2), Velocidad del Viento media (m/seg), Velocidad del Viento máxima (m/seg), Evapotranspiración máxima de un día (mm).

Metadatos

Recursos

comments powered by Disqus